<?xml version="1.0" encoding="UTF-8" standalone="no" ?>
<gpx xmlns="http://www.topografix.com/GPX/1/1" xmlns:xsi="http://www.w3.org/2001/XMLSchema-instance" xsi:schemaLocation="http://www.topografix.com/GPX/1/1 http://www.topografix.com/GPX/1/1/gpx.xsd" version="1.1" creator="VisuGPX - https://www.visugpx.com">
  <metadata>
    <name>Autour de Dixmont, de la mine au prieuré de l'Enfourchure</name>
    <desc><![CDATA[prépa séjour
]]></desc>
  </metadata>
  <wpt lat="48.08174" lon="3.41345">
    <ele>133</ele>
    <name><![CDATA[Parking de l'église]]></name>
  </wpt>
  <wpt lat="48.08172" lon="3.41591">
    <ele>143</ele>
    <name><![CDATA[Intersection avant le cimetière]]></name>
  </wpt>
  <wpt lat="48.07587" lon="3.43161">
    <ele>176</ele>
    <name><![CDATA[Intersection portail ancienne propriété Eichtal]]></name>
  </wpt>
  <wpt lat="48.08019" lon="3.44065">
    <ele>214</ele>
    <name><![CDATA[À droite à la sortie du bois]]></name>
  </wpt>
  <wpt lat="48.07642" lon="3.4522">
    <ele>154</ele>
    <name><![CDATA[Intersection La Grande Vallée (D201)]]></name>
  </wpt>
  <wpt lat="48.07321" lon="3.43979">
    <ele>151</ele>
    <name><![CDATA[Intersection entre la mine et l'Enfourchure]]></name>
  </wpt>
  <wpt lat="48.0609" lon="3.43738">
    <ele>224</ele>
    <name><![CDATA[Intersection place de La Tuilerie]]></name>
  </wpt>
  <wpt lat="48.06668" lon="3.42913">
    <ele>203</ele>
    <name><![CDATA[Bifurcation avant croisement avec D20]]></name>
  </wpt>
  <wpt lat="48.06328" lon="3.42353">
    <ele>211</ele>
    <name><![CDATA[Bifurcation à droite]]></name>
  </wpt>
  <wpt lat="48.076" lon="3.41802">
    <ele>144</ele>
    <name><![CDATA[Intersection entrée zone pavillonnaire de Dixmont]]></name>
  </wpt>
  <wpt lat="48.08352" lon="3.41121">
    <ele>132</ele>
    <name><![CDATA[À droite après le fossé]]></name>
  </wpt>
  <wpt lat="48.08176" lon="3.41346">
    <ele>134</ele>
    <name><![CDATA[Parking de l'église]]></name>
  </wpt>
  <trk>
    <name><![CDATA[Autour de Dixmont, de la mine au prieuré de l'Enfourchure]]></name>
    <trkseg>
      <trkpt lat="48.08174" lon="3.41345">
        <ele>133</ele>
        <time>2019-12-11T18:07:13+01:00</time>
      </trkpt>
      <trkpt lat="48.08152" lon="3.41398">
        <ele>134</ele>
        <time>2019-12-11T18:07:18+01:00</time>
      </trkpt>
      <trkpt lat="48.08152" lon="3.41415">
        <ele>134</ele>
        <time>2019-12-11T18:07:23+01:00</time>
      </trkpt>
      <trkpt lat="48.08151" lon="3.41421">
        <ele>135</ele>
        <time>2019-12-11T18:07:28+01:00</time>
      </trkpt>
      <trkpt lat="48.08142" lon="3.41424">
        <ele>134</ele>
        <time>2019-12-11T18:07:33+01:00</time>
      </trkpt>
      <trkpt lat="48.08129" lon="3.41431">
        <ele>134</ele>
        <time>2019-12-11T18:07:38+01:00</time>
      </trkpt>
      <trkpt lat="48.0812" lon="3.41437">
        <ele>134</ele>
        <time>2019-12-11T18:07:43+01:00</time>
      </trkpt>
      <trkpt lat="48.08095" lon="3.41466">
        <ele>134</ele>
        <time>2019-12-11T18:07:48+01:00</time>
      </trkpt>
      <trkpt lat="48.0808" lon="3.41482">
        <ele>133</ele>
        <time>2019-12-11T18:07:53+01:00</time>
      </trkpt>
      <trkpt lat="48.08063" lon="3.41502">
        <ele>134</ele>
        <time>2019-12-11T18:07:58+01:00</time>
      </trkpt>
      <trkpt lat="48.08071" lon="3.41519">
        <ele>134</ele>
        <time>2019-12-11T18:08:03+01:00</time>
      </trkpt>
      <trkpt lat="48.08079" lon="3.41536">
        <ele>134</ele>
        <time>2019-12-11T18:08:08+01:00</time>
      </trkpt>
      <trkpt lat="48.0809" lon="3.41554">
        <ele>135</ele>
        <time>2019-12-11T18:08:13+01:00</time>
      </trkpt>
      <trkpt lat="48.081" lon="3.41562">
        <ele>136</ele>
        <time>2019-12-11T18:08:18+01:00</time>
      </trkpt>
      <trkpt lat="48.08103" lon="3.41567">
        <ele>136</ele>
        <time>2019-12-11T18:08:23+01:00</time>
      </trkpt>
      <trkpt lat="48.08111" lon="3.41576">
        <ele>137</ele>
        <time>2019-12-11T18:08:28+01:00</time>
      </trkpt>
      <trkpt lat="48.0812" lon="3.4158">
        <ele>138</ele>
        <time>2019-12-11T18:08:33+01:00</time>
      </trkpt>
      <trkpt lat="48.08128" lon="3.41583">
        <ele>139</ele>
        <time>2019-12-11T18:08:38+01:00</time>
      </trkpt>
      <trkpt lat="48.08136" lon="3.41585">
        <ele>140</ele>
        <time>2019-12-11T18:08:43+01:00</time>
      </trkpt>
      <trkpt lat="48.08161" lon="3.4159">
        <ele>142</ele>
        <time>2019-12-11T18:08:48+01:00</time>
      </trkpt>
      <trkpt lat="48.08172" lon="3.41591">
        <ele>143</ele>
        <time>2019-12-11T18:08:53+01:00</time>
      </trkpt>
      <trkpt lat="48.08173" lon="3.4159">
        <ele>143</ele>
        <time>2019-12-11T18:08:58+01:00</time>
      </trkpt>
      <trkpt lat="48.08157" lon="3.41597">
        <ele>142</ele>
        <time>2019-12-11T18:09:03+01:00</time>
      </trkpt>
      <trkpt lat="48.08142" lon="3.41615">
        <ele>143</ele>
        <time>2019-12-11T18:09:08+01:00</time>
      </trkpt>
      <trkpt lat="48.08107" lon="3.41649">
        <ele>143</ele>
        <time>2019-12-11T18:09:13+01:00</time>
      </trkpt>
      <trkpt lat="48.0802" lon="3.41756">
        <ele>143</ele>
        <time>2019-12-11T18:09:18+01:00</time>
      </trkpt>
      <trkpt lat="48.07989" lon="3.41793">
        <ele>142</ele>
        <time>2019-12-11T18:09:23+01:00</time>
      </trkpt>
      <trkpt lat="48.07929" lon="3.41859">
        <ele>140</ele>
        <time>2019-12-11T18:09:28+01:00</time>
      </trkpt>
      <trkpt lat="48.07908" lon="3.41894">
        <ele>141</ele>
        <time>2019-12-11T18:09:33+01:00</time>
      </trkpt>
      <trkpt lat="48.07888" lon="3.41929">
        <ele>141</ele>
        <time>2019-12-11T18:09:38+01:00</time>
      </trkpt>
      <trkpt lat="48.07869" lon="3.41972">
        <ele>141</ele>
        <time>2019-12-11T18:09:43+01:00</time>
      </trkpt>
      <trkpt lat="48.07864" lon="3.42002">
        <ele>142</ele>
        <time>2019-12-11T18:09:48+01:00</time>
      </trkpt>
      <trkpt lat="48.07862" lon="3.42016">
        <ele>142</ele>
        <time>2019-12-11T18:09:53+01:00</time>
      </trkpt>
      <trkpt lat="48.07847" lon="3.42056">
        <ele>142</ele>
        <time>2019-12-11T18:09:58+01:00</time>
      </trkpt>
      <trkpt lat="48.07838" lon="3.42068">
        <ele>142</ele>
        <time>2019-12-11T18:10:03+01:00</time>
      </trkpt>
      <trkpt lat="48.07795" lon="3.42148">
        <ele>145</ele>
        <time>2019-12-11T18:10:08+01:00</time>
      </trkpt>
      <trkpt lat="48.07745" lon="3.4226">
        <ele>147</ele>
        <time>2019-12-11T18:10:13+01:00</time>
      </trkpt>
      <trkpt lat="48.07726" lon="3.42325">
        <ele>149</ele>
        <time>2019-12-11T18:10:18+01:00</time>
      </trkpt>
      <trkpt lat="48.0771" lon="3.42377">
        <ele>150</ele>
        <time>2019-12-11T18:10:23+01:00</time>
      </trkpt>
      <trkpt lat="48.0767" lon="3.42513">
        <ele>151</ele>
        <time>2019-12-11T18:10:28+01:00</time>
      </trkpt>
      <trkpt lat="48.07644" lon="3.42618">
        <ele>154</ele>
        <time>2019-12-11T18:10:33+01:00</time>
      </trkpt>
      <trkpt lat="48.07623" lon="3.42715">
        <ele>158</ele>
        <time>2019-12-11T18:10:38+01:00</time>
      </trkpt>
      <trkpt lat="48.07609" lon="3.42787">
        <ele>162</ele>
        <time>2019-12-11T18:10:43+01:00</time>
      </trkpt>
      <trkpt lat="48.07605" lon="3.42859">
        <ele>168</ele>
        <time>2019-12-11T18:10:48+01:00</time>
      </trkpt>
      <trkpt lat="48.07601" lon="3.42929">
        <ele>171</ele>
        <time>2019-12-11T18:10:53+01:00</time>
      </trkpt>
      <trkpt lat="48.07592" lon="3.43004">
        <ele>172</ele>
        <time>2019-12-11T18:10:58+01:00</time>
      </trkpt>
      <trkpt lat="48.07592" lon="3.43068">
        <ele>176</ele>
        <time>2019-12-11T18:11:03+01:00</time>
      </trkpt>
      <trkpt lat="48.07591" lon="3.43095">
        <ele>177</ele>
        <time>2019-12-11T18:11:08+01:00</time>
      </trkpt>
      <trkpt lat="48.07587" lon="3.43161">
        <ele>176</ele>
        <time>2019-12-11T18:11:13+01:00</time>
      </trkpt>
      <trkpt lat="48.07605" lon="3.43218">
        <ele>182</ele>
        <time>2019-12-11T18:11:18+01:00</time>
      </trkpt>
      <trkpt lat="48.07611" lon="3.43287">
        <ele>186</ele>
        <time>2019-12-11T18:11:23+01:00</time>
      </trkpt>
      <trkpt lat="48.07616" lon="3.43333">
        <ele>189</ele>
        <time>2019-12-11T18:11:28+01:00</time>
      </trkpt>
      <trkpt lat="48.07625" lon="3.43394">
        <ele>192</ele>
        <time>2019-12-11T18:11:33+01:00</time>
      </trkpt>
      <trkpt lat="48.07632" lon="3.43466">
        <ele>194</ele>
        <time>2019-12-11T18:11:38+01:00</time>
      </trkpt>
      <trkpt lat="48.07644" lon="3.43588">
        <ele>196</ele>
        <time>2019-12-11T18:11:43+01:00</time>
      </trkpt>
      <trkpt lat="48.07659" lon="3.43724">
        <ele>197</ele>
        <time>2019-12-11T18:11:48+01:00</time>
      </trkpt>
      <trkpt lat="48.07668" lon="3.43755">
        <ele>198</ele>
        <time>2019-12-11T18:11:53+01:00</time>
      </trkpt>
      <trkpt lat="48.07676" lon="3.43783">
        <ele>200</ele>
        <time>2019-12-11T18:11:58+01:00</time>
      </trkpt>
      <trkpt lat="48.07683" lon="3.43801">
        <ele>202</ele>
        <time>2019-12-11T18:12:03+01:00</time>
      </trkpt>
      <trkpt lat="48.07739" lon="3.43941">
        <ele>209</ele>
        <time>2019-12-11T18:12:08+01:00</time>
      </trkpt>
      <trkpt lat="48.07777" lon="3.44016">
        <ele>210</ele>
        <time>2019-12-11T18:12:13+01:00</time>
      </trkpt>
      <trkpt lat="48.07791" lon="3.44044">
        <ele>210</ele>
        <time>2019-12-11T18:12:18+01:00</time>
      </trkpt>
      <trkpt lat="48.07811" lon="3.44076">
        <ele>211</ele>
        <time>2019-12-11T18:12:23+01:00</time>
      </trkpt>
      <trkpt lat="48.07829" lon="3.44089">
        <ele>213</ele>
        <time>2019-12-11T18:12:28+01:00</time>
      </trkpt>
      <trkpt lat="48.07867" lon="3.44094">
        <ele>212</ele>
        <time>2019-12-11T18:12:33+01:00</time>
      </trkpt>
      <trkpt lat="48.07902" lon="3.44091">
        <ele>211</ele>
        <time>2019-12-11T18:12:38+01:00</time>
      </trkpt>
      <trkpt lat="48.07943" lon="3.44083">
        <ele>212</ele>
        <time>2019-12-11T18:12:43+01:00</time>
      </trkpt>
      <trkpt lat="48.08019" lon="3.44065">
        <ele>214</ele>
        <time>2019-12-11T18:12:48+01:00</time>
      </trkpt>
      <trkpt lat="48.08077" lon="3.44247">
        <ele>213</ele>
        <time>2019-12-11T18:12:53+01:00</time>
      </trkpt>
      <trkpt lat="48.08087" lon="3.4429">
        <ele>213</ele>
        <time>2019-12-11T18:12:58+01:00</time>
      </trkpt>
      <trkpt lat="48.0809" lon="3.44337">
        <ele>212</ele>
        <time>2019-12-11T18:13:03+01:00</time>
      </trkpt>
      <trkpt lat="48.08087" lon="3.44386">
        <ele>211</ele>
        <time>2019-12-11T18:13:08+01:00</time>
      </trkpt>
      <trkpt lat="48.08085" lon="3.44426">
        <ele>210</ele>
        <time>2019-12-11T18:13:13+01:00</time>
      </trkpt>
      <trkpt lat="48.08076" lon="3.44472">
        <ele>209</ele>
        <time>2019-12-11T18:13:18+01:00</time>
      </trkpt>
      <trkpt lat="48.08062" lon="3.44542">
        <ele>207</ele>
        <time>2019-12-11T18:13:23+01:00</time>
      </trkpt>
      <trkpt lat="48.08053" lon="3.4458">
        <ele>205</ele>
        <time>2019-12-11T18:13:28+01:00</time>
      </trkpt>
      <trkpt lat="48.08048" lon="3.44601">
        <ele>204</ele>
        <time>2019-12-11T18:13:33+01:00</time>
      </trkpt>
      <trkpt lat="48.0804" lon="3.44625">
        <ele>203</ele>
        <time>2019-12-11T18:13:38+01:00</time>
      </trkpt>
      <trkpt lat="48.08031" lon="3.44632">
        <ele>202</ele>
        <time>2019-12-11T18:13:43+01:00</time>
      </trkpt>
      <trkpt lat="48.0802" lon="3.44637">
        <ele>201</ele>
        <time>2019-12-11T18:13:48+01:00</time>
      </trkpt>
      <trkpt lat="48.07986" lon="3.44647">
        <ele>199</ele>
        <time>2019-12-11T18:13:53+01:00</time>
      </trkpt>
      <trkpt lat="48.07927" lon="3.44676">
        <ele>196</ele>
        <time>2019-12-11T18:13:58+01:00</time>
      </trkpt>
      <trkpt lat="48.07866" lon="3.44705">
        <ele>190</ele>
        <time>2019-12-11T18:14:03+01:00</time>
      </trkpt>
      <trkpt lat="48.07851" lon="3.44721">
        <ele>187</ele>
        <time>2019-12-11T18:14:08+01:00</time>
      </trkpt>
      <trkpt lat="48.07844" lon="3.44742">
        <ele>183</ele>
        <time>2019-12-11T18:14:13+01:00</time>
      </trkpt>
      <trkpt lat="48.07839" lon="3.44757">
        <ele>181</ele>
        <time>2019-12-11T18:14:18+01:00</time>
      </trkpt>
      <trkpt lat="48.07826" lon="3.44784">
        <ele>178</ele>
        <time>2019-12-11T18:14:23+01:00</time>
      </trkpt>
      <trkpt lat="48.0781" lon="3.44808">
        <ele>174</ele>
        <time>2019-12-11T18:14:28+01:00</time>
      </trkpt>
      <trkpt lat="48.07781" lon="3.44842">
        <ele>169</ele>
        <time>2019-12-11T18:14:33+01:00</time>
      </trkpt>
      <trkpt lat="48.07757" lon="3.44862">
        <ele>166</ele>
        <time>2019-12-11T18:14:38+01:00</time>
      </trkpt>
      <trkpt lat="48.07745" lon="3.44872">
        <ele>165</ele>
        <time>2019-12-11T18:14:43+01:00</time>
      </trkpt>
      <trkpt lat="48.07733" lon="3.44887">
        <ele>163</ele>
        <time>2019-12-11T18:14:48+01:00</time>
      </trkpt>
      <trkpt lat="48.07725" lon="3.44932">
        <ele>161</ele>
        <time>2019-12-11T18:14:53+01:00</time>
      </trkpt>
      <trkpt lat="48.0772" lon="3.44971">
        <ele>159</ele>
        <time>2019-12-11T18:14:58+01:00</time>
      </trkpt>
      <trkpt lat="48.07717" lon="3.45001">
        <ele>157</ele>
        <time>2019-12-11T18:15:03+01:00</time>
      </trkpt>
      <trkpt lat="48.07715" lon="3.45044">
        <ele>156</ele>
        <time>2019-12-11T18:15:08+01:00</time>
      </trkpt>
      <trkpt lat="48.07707" lon="3.45076">
        <ele>156</ele>
        <time>2019-12-11T18:15:13+01:00</time>
      </trkpt>
      <trkpt lat="48.07697" lon="3.4512">
        <ele>156</ele>
        <time>2019-12-11T18:15:18+01:00</time>
      </trkpt>
      <trkpt lat="48.07675" lon="3.45173">
        <ele>155</ele>
        <time>2019-12-11T18:15:23+01:00</time>
      </trkpt>
      <trkpt lat="48.07666" lon="3.45196">
        <ele>155</ele>
        <time>2019-12-11T18:15:28+01:00</time>
      </trkpt>
      <trkpt lat="48.07651" lon="3.45212">
        <ele>154</ele>
        <time>2019-12-11T18:15:33+01:00</time>
      </trkpt>
      <trkpt lat="48.07642" lon="3.4522">
        <ele>154</ele>
        <time>2019-12-11T18:15:38+01:00</time>
      </trkpt>
      <trkpt lat="48.07632" lon="3.45202">
        <ele>154</ele>
        <time>2019-12-11T18:15:43+01:00</time>
      </trkpt>
      <trkpt lat="48.07624" lon="3.45185">
        <ele>154</ele>
        <time>2019-12-11T18:15:48+01:00</time>
      </trkpt>
      <trkpt lat="48.0762" lon="3.45168">
        <ele>154</ele>
        <time>2019-12-11T18:15:53+01:00</time>
      </trkpt>
      <trkpt lat="48.07615" lon="3.4515">
        <ele>153</ele>
        <time>2019-12-11T18:15:58+01:00</time>
      </trkpt>
      <trkpt lat="48.07605" lon="3.45125">
        <ele>153</ele>
        <time>2019-12-11T18:16:03+01:00</time>
      </trkpt>
      <trkpt lat="48.07591" lon="3.45099">
        <ele>152</ele>
        <time>2019-12-11T18:16:08+01:00</time>
      </trkpt>
      <trkpt lat="48.07567" lon="3.45055">
        <ele>150</ele>
        <time>2019-12-11T18:16:13+01:00</time>
      </trkpt>
      <trkpt lat="48.07557" lon="3.45032">
        <ele>150</ele>
        <time>2019-12-11T18:16:18+01:00</time>
      </trkpt>
      <trkpt lat="48.07554" lon="3.45024">
        <ele>150</ele>
        <time>2019-12-11T18:16:23+01:00</time>
      </trkpt>
      <trkpt lat="48.07548" lon="3.45028">
        <ele>150</ele>
        <time>2019-12-11T18:16:28+01:00</time>
      </trkpt>
      <trkpt lat="48.07542" lon="3.45024">
        <ele>150</ele>
        <time>2019-12-11T18:16:33+01:00</time>
      </trkpt>
      <trkpt lat="48.07505" lon="3.4499">
        <ele>149</ele>
        <time>2019-12-11T18:16:38+01:00</time>
      </trkpt>
      <trkpt lat="48.07468" lon="3.4496">
        <ele>148</ele>
        <time>2019-12-11T18:16:43+01:00</time>
      </trkpt>
      <trkpt lat="48.07441" lon="3.44933">
        <ele>149</ele>
        <time>2019-12-11T18:16:48+01:00</time>
      </trkpt>
      <trkpt lat="48.07393" lon="3.44877">
        <ele>153</ele>
        <time>2019-12-11T18:16:53+01:00</time>
      </trkpt>
      <trkpt lat="48.07372" lon="3.44843">
        <ele>158</ele>
        <time>2019-12-11T18:16:58+01:00</time>
      </trkpt>
      <trkpt lat="48.07362" lon="3.44831">
        <ele>161</ele>
        <time>2019-12-11T18:17:03+01:00</time>
      </trkpt>
      <trkpt lat="48.07397" lon="3.44747">
        <ele>155</ele>
        <time>2019-12-11T18:17:08+01:00</time>
      </trkpt>
      <trkpt lat="48.07403" lon="3.44712">
        <ele>154</ele>
        <time>2019-12-11T18:17:13+01:00</time>
      </trkpt>
      <trkpt lat="48.07405" lon="3.44672">
        <ele>155</ele>
        <time>2019-12-11T18:17:18+01:00</time>
      </trkpt>
      <trkpt lat="48.07401" lon="3.44623">
        <ele>156</ele>
        <time>2019-12-11T18:17:23+01:00</time>
      </trkpt>
      <trkpt lat="48.07391" lon="3.4448">
        <ele>155</ele>
        <time>2019-12-11T18:17:28+01:00</time>
      </trkpt>
      <trkpt lat="48.07387" lon="3.44403">
        <ele>154</ele>
        <time>2019-12-11T18:17:33+01:00</time>
      </trkpt>
      <trkpt lat="48.07378" lon="3.44338">
        <ele>152</ele>
        <time>2019-12-11T18:17:38+01:00</time>
      </trkpt>
      <trkpt lat="48.07359" lon="3.44219">
        <ele>150</ele>
        <time>2019-12-11T18:17:43+01:00</time>
      </trkpt>
      <trkpt lat="48.07341" lon="3.44099">
        <ele>151</ele>
        <time>2019-12-11T18:17:48+01:00</time>
      </trkpt>
      <trkpt lat="48.07319" lon="3.43965">
        <ele>151</ele>
        <time>2019-12-11T18:17:53+01:00</time>
      </trkpt>
      <trkpt lat="48.07316" lon="3.43857">
        <ele>149</ele>
        <time>2019-12-11T18:17:58+01:00</time>
      </trkpt>
      <trkpt lat="48.07318" lon="3.43751">
        <ele>147</ele>
        <time>2019-12-11T18:18:03+01:00</time>
      </trkpt>
      <trkpt lat="48.0732" lon="3.43685">
        <ele>145</ele>
        <time>2019-12-11T18:18:08+01:00</time>
      </trkpt>
      <trkpt lat="48.07324" lon="3.43681">
        <ele>145</ele>
        <time>2019-12-11T18:18:13+01:00</time>
      </trkpt>
      <trkpt lat="48.07332" lon="3.43684">
        <ele>145</ele>
        <time>2019-12-11T18:18:18+01:00</time>
      </trkpt>
      <trkpt lat="48.07378" lon="3.43691">
        <ele>144</ele>
        <time>2019-12-11T18:18:23+01:00</time>
      </trkpt>
      <trkpt lat="48.0742" lon="3.43697">
        <ele>144</ele>
        <time>2019-12-11T18:18:28+01:00</time>
      </trkpt>
      <trkpt lat="48.07395" lon="3.43693">
        <ele>144</ele>
        <time>2019-12-11T18:18:33+01:00</time>
      </trkpt>
      <trkpt lat="48.07366" lon="3.43689">
        <ele>144</ele>
        <time>2019-12-11T18:18:38+01:00</time>
      </trkpt>
      <trkpt lat="48.07337" lon="3.43686">
        <ele>145</ele>
        <time>2019-12-11T18:18:43+01:00</time>
      </trkpt>
      <trkpt lat="48.07324" lon="3.43679">
        <ele>145</ele>
        <time>2019-12-11T18:18:48+01:00</time>
      </trkpt>
      <trkpt lat="48.07319" lon="3.4369">
        <ele>145</ele>
        <time>2019-12-11T18:18:53+01:00</time>
      </trkpt>
      <trkpt lat="48.07318" lon="3.43742">
        <ele>147</ele>
        <time>2019-12-11T18:18:58+01:00</time>
      </trkpt>
      <trkpt lat="48.07317" lon="3.43792">
        <ele>148</ele>
        <time>2019-12-11T18:19:03+01:00</time>
      </trkpt>
      <trkpt lat="48.07316" lon="3.43888">
        <ele>149</ele>
        <time>2019-12-11T18:19:08+01:00</time>
      </trkpt>
      <trkpt lat="48.07319" lon="3.43958">
        <ele>150</ele>
        <time>2019-12-11T18:19:13+01:00</time>
      </trkpt>
      <trkpt lat="48.07321" lon="3.43979">
        <ele>151</ele>
        <time>2019-12-11T18:19:18+01:00</time>
      </trkpt>
      <trkpt lat="48.07285" lon="3.44019">
        <ele>156</ele>
        <time>2019-12-11T18:19:23+01:00</time>
      </trkpt>
      <trkpt lat="48.07253" lon="3.4409">
        <ele>165</ele>
        <time>2019-12-11T18:19:28+01:00</time>
      </trkpt>
      <trkpt lat="48.07233" lon="3.44199">
        <ele>176</ele>
        <time>2019-12-11T18:19:33+01:00</time>
      </trkpt>
      <trkpt lat="48.07232" lon="3.44279">
        <ele>183</ele>
        <time>2019-12-11T18:19:38+01:00</time>
      </trkpt>
      <trkpt lat="48.07241" lon="3.44365">
        <ele>188</ele>
        <time>2019-12-11T18:19:43+01:00</time>
      </trkpt>
      <trkpt lat="48.07246" lon="3.44415">
        <ele>190</ele>
        <time>2019-12-11T18:19:48+01:00</time>
      </trkpt>
      <trkpt lat="48.07254" lon="3.44488">
        <ele>190</ele>
        <time>2019-12-11T18:19:53+01:00</time>
      </trkpt>
      <trkpt lat="48.07262" lon="3.44535">
        <ele>189</ele>
        <time>2019-12-11T18:19:58+01:00</time>
      </trkpt>
      <trkpt lat="48.0728" lon="3.44607">
        <ele>186</ele>
        <time>2019-12-11T18:20:03+01:00</time>
      </trkpt>
      <trkpt lat="48.07292" lon="3.44674">
        <ele>183</ele>
        <time>2019-12-11T18:20:08+01:00</time>
      </trkpt>
      <trkpt lat="48.07276" lon="3.44658">
        <ele>186</ele>
        <time>2019-12-11T18:20:13+01:00</time>
      </trkpt>
      <trkpt lat="48.07258" lon="3.44661">
        <ele>188</ele>
        <time>2019-12-11T18:20:18+01:00</time>
      </trkpt>
      <trkpt lat="48.07226" lon="3.4466">
        <ele>191</ele>
        <time>2019-12-11T18:20:23+01:00</time>
      </trkpt>
      <trkpt lat="48.07197" lon="3.4465">
        <ele>194</ele>
        <time>2019-12-11T18:20:28+01:00</time>
      </trkpt>
      <trkpt lat="48.0714" lon="3.44591">
        <ele>199</ele>
        <time>2019-12-11T18:20:33+01:00</time>
      </trkpt>
      <trkpt lat="48.07073" lon="3.44535">
        <ele>200</ele>
        <time>2019-12-11T18:20:38+01:00</time>
      </trkpt>
      <trkpt lat="48.07037" lon="3.44509">
        <ele>200</ele>
        <time>2019-12-11T18:20:43+01:00</time>
      </trkpt>
      <trkpt lat="48.06975" lon="3.44476">
        <ele>202</ele>
        <time>2019-12-11T18:20:48+01:00</time>
      </trkpt>
      <trkpt lat="48.06891" lon="3.44436">
        <ele>207</ele>
        <time>2019-12-11T18:20:53+01:00</time>
      </trkpt>
      <trkpt lat="48.06872" lon="3.44426">
        <ele>210</ele>
        <time>2019-12-11T18:20:58+01:00</time>
      </trkpt>
      <trkpt lat="48.06848" lon="3.44415">
        <ele>213</ele>
        <time>2019-12-11T18:21:03+01:00</time>
      </trkpt>
      <trkpt lat="48.06832" lon="3.44401">
        <ele>215</ele>
        <time>2019-12-11T18:21:08+01:00</time>
      </trkpt>
      <trkpt lat="48.06803" lon="3.44373">
        <ele>216</ele>
        <time>2019-12-11T18:21:13+01:00</time>
      </trkpt>
      <trkpt lat="48.06792" lon="3.44341">
        <ele>216</ele>
        <time>2019-12-11T18:21:18+01:00</time>
      </trkpt>
      <trkpt lat="48.06776" lon="3.44321">
        <ele>216</ele>
        <time>2019-12-11T18:21:23+01:00</time>
      </trkpt>
      <trkpt lat="48.06755" lon="3.44302">
        <ele>216</ele>
        <time>2019-12-11T18:21:28+01:00</time>
      </trkpt>
      <trkpt lat="48.06725" lon="3.44291">
        <ele>216</ele>
        <time>2019-12-11T18:21:33+01:00</time>
      </trkpt>
      <trkpt lat="48.06672" lon="3.44292">
        <ele>218</ele>
        <time>2019-12-11T18:21:38+01:00</time>
      </trkpt>
      <trkpt lat="48.06608" lon="3.44289">
        <ele>219</ele>
        <time>2019-12-11T18:21:43+01:00</time>
      </trkpt>
      <trkpt lat="48.06563" lon="3.44282">
        <ele>219</ele>
        <time>2019-12-11T18:21:48+01:00</time>
      </trkpt>
      <trkpt lat="48.06465" lon="3.4427">
        <ele>221</ele>
        <time>2019-12-11T18:21:53+01:00</time>
      </trkpt>
      <trkpt lat="48.06395" lon="3.44257">
        <ele>222</ele>
        <time>2019-12-11T18:21:58+01:00</time>
      </trkpt>
      <trkpt lat="48.06325" lon="3.44241">
        <ele>223</ele>
        <time>2019-12-11T18:22:03+01:00</time>
      </trkpt>
      <trkpt lat="48.06312" lon="3.44237">
        <ele>222</ele>
        <time>2019-12-11T18:22:08+01:00</time>
      </trkpt>
      <trkpt lat="48.06278" lon="3.44228">
        <ele>221</ele>
        <time>2019-12-11T18:22:13+01:00</time>
      </trkpt>
      <trkpt lat="48.06256" lon="3.44198">
        <ele>219</ele>
        <time>2019-12-11T18:22:18+01:00</time>
      </trkpt>
      <trkpt lat="48.06235" lon="3.44155">
        <ele>218</ele>
        <time>2019-12-11T18:22:23+01:00</time>
      </trkpt>
      <trkpt lat="48.06219" lon="3.44095">
        <ele>217</ele>
        <time>2019-12-11T18:22:28+01:00</time>
      </trkpt>
      <trkpt lat="48.06196" lon="3.43991">
        <ele>219</ele>
        <time>2019-12-11T18:22:33+01:00</time>
      </trkpt>
      <trkpt lat="48.06169" lon="3.43927">
        <ele>221</ele>
        <time>2019-12-11T18:22:38+01:00</time>
      </trkpt>
      <trkpt lat="48.06126" lon="3.43816">
        <ele>222</ele>
        <time>2019-12-11T18:22:43+01:00</time>
      </trkpt>
      <trkpt lat="48.061" lon="3.43746">
        <ele>223</ele>
        <time>2019-12-11T18:22:48+01:00</time>
      </trkpt>
      <trkpt lat="48.0609" lon="3.43738">
        <ele>224</ele>
        <time>2019-12-11T18:22:53+01:00</time>
      </trkpt>
      <trkpt lat="48.06098" lon="3.43702">
        <ele>224</ele>
        <time>2019-12-11T18:22:58+01:00</time>
      </trkpt>
      <trkpt lat="48.06116" lon="3.43641">
        <ele>224</ele>
        <time>2019-12-11T18:23:03+01:00</time>
      </trkpt>
      <trkpt lat="48.06121" lon="3.43619">
        <ele>223</ele>
        <time>2019-12-11T18:23:08+01:00</time>
      </trkpt>
      <trkpt lat="48.06123" lon="3.43607">
        <ele>223</ele>
        <time>2019-12-11T18:23:13+01:00</time>
      </trkpt>
      <trkpt lat="48.0613" lon="3.43601">
        <ele>223</ele>
        <time>2019-12-11T18:23:18+01:00</time>
      </trkpt>
      <trkpt lat="48.0615" lon="3.43603">
        <ele>222</ele>
        <time>2019-12-11T18:23:23+01:00</time>
      </trkpt>
      <trkpt lat="48.06169" lon="3.43586">
        <ele>222</ele>
        <time>2019-12-11T18:23:28+01:00</time>
      </trkpt>
      <trkpt lat="48.06199" lon="3.4356">
        <ele>222</ele>
        <time>2019-12-11T18:23:33+01:00</time>
      </trkpt>
      <trkpt lat="48.06212" lon="3.43542">
        <ele>222</ele>
        <time>2019-12-11T18:23:38+01:00</time>
      </trkpt>
      <trkpt lat="48.06218" lon="3.43526">
        <ele>222</ele>
        <time>2019-12-11T18:23:43+01:00</time>
      </trkpt>
      <trkpt lat="48.06262" lon="3.43567">
        <ele>223</ele>
        <time>2019-12-11T18:23:48+01:00</time>
      </trkpt>
      <trkpt lat="48.06303" lon="3.43583">
        <ele>222</ele>
        <time>2019-12-11T18:23:53+01:00</time>
      </trkpt>
      <trkpt lat="48.0633" lon="3.43594">
        <ele>221</ele>
        <time>2019-12-11T18:23:58+01:00</time>
      </trkpt>
      <trkpt lat="48.06353" lon="3.4356">
        <ele>220</ele>
        <time>2019-12-11T18:24:03+01:00</time>
      </trkpt>
      <trkpt lat="48.06366" lon="3.43533">
        <ele>220</ele>
        <time>2019-12-11T18:24:08+01:00</time>
      </trkpt>
      <trkpt lat="48.06389" lon="3.43489">
        <ele>219</ele>
        <time>2019-12-11T18:24:13+01:00</time>
      </trkpt>
      <trkpt lat="48.06432" lon="3.43428">
        <ele>216</ele>
        <time>2019-12-11T18:24:18+01:00</time>
      </trkpt>
      <trkpt lat="48.06445" lon="3.43402">
        <ele>215</ele>
        <time>2019-12-11T18:24:23+01:00</time>
      </trkpt>
      <trkpt lat="48.06458" lon="3.43363">
        <ele>214</ele>
        <time>2019-12-11T18:24:28+01:00</time>
      </trkpt>
      <trkpt lat="48.06487" lon="3.43271">
        <ele>208</ele>
        <time>2019-12-11T18:24:33+01:00</time>
      </trkpt>
      <trkpt lat="48.06507" lon="3.43214">
        <ele>205</ele>
        <time>2019-12-11T18:24:38+01:00</time>
      </trkpt>
      <trkpt lat="48.06522" lon="3.43159">
        <ele>203</ele>
        <time>2019-12-11T18:24:43+01:00</time>
      </trkpt>
      <trkpt lat="48.06527" lon="3.43126">
        <ele>203</ele>
        <time>2019-12-11T18:24:48+01:00</time>
      </trkpt>
      <trkpt lat="48.06545" lon="3.43072">
        <ele>204</ele>
        <time>2019-12-11T18:24:53+01:00</time>
      </trkpt>
      <trkpt lat="48.06582" lon="3.43025">
        <ele>204</ele>
        <time>2019-12-11T18:24:58+01:00</time>
      </trkpt>
      <trkpt lat="48.06646" lon="3.42941">
        <ele>204</ele>
        <time>2019-12-11T18:25:03+01:00</time>
      </trkpt>
      <trkpt lat="48.06668" lon="3.42913">
        <ele>203</ele>
        <time>2019-12-11T18:25:08+01:00</time>
      </trkpt>
      <trkpt lat="48.06526" lon="3.4282">
        <ele>206</ele>
        <time>2019-12-11T18:25:13+01:00</time>
      </trkpt>
      <trkpt lat="48.06454" lon="3.42772">
        <ele>209</ele>
        <time>2019-12-11T18:25:18+01:00</time>
      </trkpt>
      <trkpt lat="48.06428" lon="3.42755">
        <ele>210</ele>
        <time>2019-12-11T18:25:23+01:00</time>
      </trkpt>
      <trkpt lat="48.06392" lon="3.42737">
        <ele>211</ele>
        <time>2019-12-11T18:25:28+01:00</time>
      </trkpt>
      <trkpt lat="48.06288" lon="3.42688">
        <ele>214</ele>
        <time>2019-12-11T18:25:33+01:00</time>
      </trkpt>
      <trkpt lat="48.06301" lon="3.4261">
        <ele>213</ele>
        <time>2019-12-11T18:25:38+01:00</time>
      </trkpt>
      <trkpt lat="48.06302" lon="3.42571">
        <ele>212</ele>
        <time>2019-12-11T18:25:43+01:00</time>
      </trkpt>
      <trkpt lat="48.06299" lon="3.4247">
        <ele>211</ele>
        <time>2019-12-11T18:25:48+01:00</time>
      </trkpt>
      <trkpt lat="48.06301" lon="3.42433">
        <ele>211</ele>
        <time>2019-12-11T18:25:53+01:00</time>
      </trkpt>
      <trkpt lat="48.06307" lon="3.42409">
        <ele>211</ele>
        <time>2019-12-11T18:25:58+01:00</time>
      </trkpt>
      <trkpt lat="48.06328" lon="3.42353">
        <ele>211</ele>
        <time>2019-12-11T18:26:03+01:00</time>
      </trkpt>
      <trkpt lat="48.06504" lon="3.4223">
        <ele>209</ele>
        <time>2019-12-11T18:26:08+01:00</time>
      </trkpt>
      <trkpt lat="48.06541" lon="3.42205">
        <ele>208</ele>
        <time>2019-12-11T18:26:13+01:00</time>
      </trkpt>
      <trkpt lat="48.06579" lon="3.42187">
        <ele>207</ele>
        <time>2019-12-11T18:26:18+01:00</time>
      </trkpt>
      <trkpt lat="48.06602" lon="3.42172">
        <ele>207</ele>
        <time>2019-12-11T18:26:23+01:00</time>
      </trkpt>
      <trkpt lat="48.06631" lon="3.42132">
        <ele>205</ele>
        <time>2019-12-11T18:26:28+01:00</time>
      </trkpt>
      <trkpt lat="48.06655" lon="3.42084">
        <ele>204</ele>
        <time>2019-12-11T18:26:33+01:00</time>
      </trkpt>
      <trkpt lat="48.06668" lon="3.42055">
        <ele>203</ele>
        <time>2019-12-11T18:26:38+01:00</time>
      </trkpt>
      <trkpt lat="48.06691" lon="3.4204">
        <ele>202</ele>
        <time>2019-12-11T18:26:43+01:00</time>
      </trkpt>
      <trkpt lat="48.06707" lon="3.42031">
        <ele>202</ele>
        <time>2019-12-11T18:26:48+01:00</time>
      </trkpt>
      <trkpt lat="48.06719" lon="3.42031">
        <ele>202</ele>
        <time>2019-12-11T18:26:53+01:00</time>
      </trkpt>
      <trkpt lat="48.06757" lon="3.42034">
        <ele>202</ele>
        <time>2019-12-11T18:26:58+01:00</time>
      </trkpt>
      <trkpt lat="48.06772" lon="3.42032">
        <ele>202</ele>
        <time>2019-12-11T18:27:03+01:00</time>
      </trkpt>
      <trkpt lat="48.06784" lon="3.42024">
        <ele>202</ele>
        <time>2019-12-11T18:27:08+01:00</time>
      </trkpt>
      <trkpt lat="48.06795" lon="3.42012">
        <ele>203</ele>
        <time>2019-12-11T18:27:13+01:00</time>
      </trkpt>
      <trkpt lat="48.06815" lon="3.41977">
        <ele>204</ele>
        <time>2019-12-11T18:27:18+01:00</time>
      </trkpt>
      <trkpt lat="48.06829" lon="3.41935">
        <ele>205</ele>
        <time>2019-12-11T18:27:23+01:00</time>
      </trkpt>
      <trkpt lat="48.06835" lon="3.41909">
        <ele>206</ele>
        <time>2019-12-11T18:27:28+01:00</time>
      </trkpt>
      <trkpt lat="48.0684" lon="3.41892">
        <ele>206</ele>
        <time>2019-12-11T18:27:33+01:00</time>
      </trkpt>
      <trkpt lat="48.06918" lon="3.41936">
        <ele>202</ele>
        <time>2019-12-11T18:27:38+01:00</time>
      </trkpt>
      <trkpt lat="48.07027" lon="3.41994">
        <ele>196</ele>
        <time>2019-12-11T18:27:43+01:00</time>
      </trkpt>
      <trkpt lat="48.07046" lon="3.42004">
        <ele>195</ele>
        <time>2019-12-11T18:27:48+01:00</time>
      </trkpt>
      <trkpt lat="48.07055" lon="3.42003">
        <ele>194</ele>
        <time>2019-12-11T18:27:53+01:00</time>
      </trkpt>
      <trkpt lat="48.0717" lon="3.41954">
        <ele>187</ele>
        <time>2019-12-11T18:27:58+01:00</time>
      </trkpt>
      <trkpt lat="48.07226" lon="3.41928">
        <ele>185</ele>
        <time>2019-12-11T18:28:03+01:00</time>
      </trkpt>
      <trkpt lat="48.073" lon="3.4189">
        <ele>184</ele>
        <time>2019-12-11T18:28:08+01:00</time>
      </trkpt>
      <trkpt lat="48.07375" lon="3.41857">
        <ele>177</ele>
        <time>2019-12-11T18:28:13+01:00</time>
      </trkpt>
      <trkpt lat="48.07391" lon="3.41858">
        <ele>175</ele>
        <time>2019-12-11T18:28:18+01:00</time>
      </trkpt>
      <trkpt lat="48.07405" lon="3.41848">
        <ele>173</ele>
        <time>2019-12-11T18:28:23+01:00</time>
      </trkpt>
      <trkpt lat="48.07418" lon="3.41835">
        <ele>172</ele>
        <time>2019-12-11T18:28:28+01:00</time>
      </trkpt>
      <trkpt lat="48.07437" lon="3.4181">
        <ele>168</ele>
        <time>2019-12-11T18:28:33+01:00</time>
      </trkpt>
      <trkpt lat="48.07456" lon="3.41762">
        <ele>166</ele>
        <time>2019-12-11T18:28:38+01:00</time>
      </trkpt>
      <trkpt lat="48.07476" lon="3.41723">
        <ele>162</ele>
        <time>2019-12-11T18:28:43+01:00</time>
      </trkpt>
      <trkpt lat="48.07507" lon="3.41757">
        <ele>154</ele>
        <time>2019-12-11T18:28:48+01:00</time>
      </trkpt>
      <trkpt lat="48.07542" lon="3.41774">
        <ele>150</ele>
        <time>2019-12-11T18:28:53+01:00</time>
      </trkpt>
      <trkpt lat="48.07554" lon="3.41779">
        <ele>149</ele>
        <time>2019-12-11T18:28:58+01:00</time>
      </trkpt>
      <trkpt lat="48.07568" lon="3.41781">
        <ele>148</ele>
        <time>2019-12-11T18:29:03+01:00</time>
      </trkpt>
      <trkpt lat="48.076" lon="3.41802">
        <ele>144</ele>
        <time>2019-12-11T18:29:08+01:00</time>
      </trkpt>
      <trkpt lat="48.07628" lon="3.41734">
        <ele>141</ele>
        <time>2019-12-11T18:29:13+01:00</time>
      </trkpt>
      <trkpt lat="48.07645" lon="3.41695">
        <ele>141</ele>
        <time>2019-12-11T18:29:18+01:00</time>
      </trkpt>
      <trkpt lat="48.07711" lon="3.41563">
        <ele>143</ele>
        <time>2019-12-11T18:29:23+01:00</time>
      </trkpt>
      <trkpt lat="48.0776" lon="3.41481">
        <ele>142</ele>
        <time>2019-12-11T18:29:28+01:00</time>
      </trkpt>
      <trkpt lat="48.07806" lon="3.41408">
        <ele>140</ele>
        <time>2019-12-11T18:29:33+01:00</time>
      </trkpt>
      <trkpt lat="48.07842" lon="3.41342">
        <ele>140</ele>
        <time>2019-12-11T18:29:38+01:00</time>
      </trkpt>
      <trkpt lat="48.07872" lon="3.41299">
        <ele>140</ele>
        <time>2019-12-11T18:29:43+01:00</time>
      </trkpt>
      <trkpt lat="48.07914" lon="3.41227">
        <ele>139</ele>
        <time>2019-12-11T18:29:48+01:00</time>
      </trkpt>
      <trkpt lat="48.07962" lon="3.41162">
        <ele>138</ele>
        <time>2019-12-11T18:29:53+01:00</time>
      </trkpt>
      <trkpt lat="48.07986" lon="3.41136">
        <ele>136</ele>
        <time>2019-12-11T18:29:58+01:00</time>
      </trkpt>
      <trkpt lat="48.08007" lon="3.41119">
        <ele>133</ele>
        <time>2019-12-11T18:30:03+01:00</time>
      </trkpt>
      <trkpt lat="48.08053" lon="3.41094">
        <ele>131</ele>
        <time>2019-12-11T18:30:08+01:00</time>
      </trkpt>
      <trkpt lat="48.08092" lon="3.41048">
        <ele>131</ele>
        <time>2019-12-11T18:30:13+01:00</time>
      </trkpt>
      <trkpt lat="48.08121" lon="3.41019">
        <ele>132</ele>
        <time>2019-12-11T18:30:18+01:00</time>
      </trkpt>
      <trkpt lat="48.08136" lon="3.41">
        <ele>132</ele>
        <time>2019-12-11T18:30:23+01:00</time>
      </trkpt>
      <trkpt lat="48.08164" lon="3.40964">
        <ele>132</ele>
        <time>2019-12-11T18:30:28+01:00</time>
      </trkpt>
      <trkpt lat="48.0818" lon="3.40937">
        <ele>133</ele>
        <time>2019-12-11T18:30:33+01:00</time>
      </trkpt>
      <trkpt lat="48.08197" lon="3.40915">
        <ele>133</ele>
        <time>2019-12-11T18:30:38+01:00</time>
      </trkpt>
      <trkpt lat="48.08219" lon="3.40947">
        <ele>132</ele>
        <time>2019-12-11T18:30:43+01:00</time>
      </trkpt>
      <trkpt lat="48.0824" lon="3.40961">
        <ele>131</ele>
        <time>2019-12-11T18:30:48+01:00</time>
      </trkpt>
      <trkpt lat="48.08258" lon="3.40969">
        <ele>131</ele>
        <time>2019-12-11T18:30:53+01:00</time>
      </trkpt>
      <trkpt lat="48.0828" lon="3.40974">
        <ele>130</ele>
        <time>2019-12-11T18:30:58+01:00</time>
      </trkpt>
      <trkpt lat="48.08298" lon="3.40985">
        <ele>130</ele>
        <time>2019-12-11T18:31:03+01:00</time>
      </trkpt>
      <trkpt lat="48.0831" lon="3.40991">
        <ele>130</ele>
        <time>2019-12-11T18:31:08+01:00</time>
      </trkpt>
      <trkpt lat="48.08319" lon="3.41">
        <ele>130</ele>
        <time>2019-12-11T18:31:13+01:00</time>
      </trkpt>
      <trkpt lat="48.0833" lon="3.41012">
        <ele>130</ele>
        <time>2019-12-11T18:31:18+01:00</time>
      </trkpt>
      <trkpt lat="48.08338" lon="3.41026">
        <ele>130</ele>
        <time>2019-12-11T18:31:23+01:00</time>
      </trkpt>
      <trkpt lat="48.08343" lon="3.41041">
        <ele>130</ele>
        <time>2019-12-11T18:31:28+01:00</time>
      </trkpt>
      <trkpt lat="48.08353" lon="3.41067">
        <ele>131</ele>
        <time>2019-12-11T18:31:33+01:00</time>
      </trkpt>
      <trkpt lat="48.08357" lon="3.41081">
        <ele>131</ele>
        <time>2019-12-11T18:31:38+01:00</time>
      </trkpt>
      <trkpt lat="48.08363" lon="3.41091">
        <ele>131</ele>
        <time>2019-12-11T18:31:43+01:00</time>
      </trkpt>
      <trkpt lat="48.08352" lon="3.41121">
        <ele>132</ele>
        <time>2019-12-11T18:31:48+01:00</time>
      </trkpt>
      <trkpt lat="48.08329" lon="3.41101">
        <ele>131</ele>
        <time>2019-12-11T18:31:53+01:00</time>
      </trkpt>
      <trkpt lat="48.08312" lon="3.41084">
        <ele>131</ele>
        <time>2019-12-11T18:31:58+01:00</time>
      </trkpt>
      <trkpt lat="48.083" lon="3.41073">
        <ele>131</ele>
        <time>2019-12-11T18:32:03+01:00</time>
      </trkpt>
      <trkpt lat="48.08283" lon="3.41091">
        <ele>130</ele>
        <time>2019-12-11T18:32:08+01:00</time>
      </trkpt>
      <trkpt lat="48.08266" lon="3.41104">
        <ele>130</ele>
        <time>2019-12-11T18:32:13+01:00</time>
      </trkpt>
      <trkpt lat="48.08237" lon="3.4113">
        <ele>131</ele>
        <time>2019-12-11T18:32:18+01:00</time>
      </trkpt>
      <trkpt lat="48.08224" lon="3.41138">
        <ele>131</ele>
        <time>2019-12-11T18:32:23+01:00</time>
      </trkpt>
      <trkpt lat="48.08219" lon="3.41145">
        <ele>131</ele>
        <time>2019-12-11T18:32:28+01:00</time>
      </trkpt>
      <trkpt lat="48.08227" lon="3.41171">
        <ele>131</ele>
        <time>2019-12-11T18:32:33+01:00</time>
      </trkpt>
      <trkpt lat="48.08231" lon="3.41195">
        <ele>132</ele>
        <time>2019-12-11T18:32:38+01:00</time>
      </trkpt>
      <trkpt lat="48.08234" lon="3.41212">
        <ele>132</ele>
        <time>2019-12-11T18:32:43+01:00</time>
      </trkpt>
      <trkpt lat="48.08253" lon="3.41212">
        <ele>132</ele>
        <time>2019-12-11T18:32:48+01:00</time>
      </trkpt>
      <trkpt lat="48.08283" lon="3.41219">
        <ele>133</ele>
        <time>2019-12-11T18:32:53+01:00</time>
      </trkpt>
      <trkpt lat="48.08299" lon="3.41226">
        <ele>133</ele>
        <time>2019-12-11T18:32:58+01:00</time>
      </trkpt>
      <trkpt lat="48.08311" lon="3.41232">
        <ele>134</ele>
        <time>2019-12-11T18:33:03+01:00</time>
      </trkpt>
      <trkpt lat="48.08316" lon="3.41233">
        <ele>134</ele>
        <time>2019-12-11T18:33:08+01:00</time>
      </trkpt>
      <trkpt lat="48.08311" lon="3.41255">
        <ele>135</ele>
        <time>2019-12-11T18:33:13+01:00</time>
      </trkpt>
      <trkpt lat="48.08305" lon="3.41282">
        <ele>135</ele>
        <time>2019-12-11T18:33:18+01:00</time>
      </trkpt>
      <trkpt lat="48.08302" lon="3.41292">
        <ele>135</ele>
        <time>2019-12-11T18:33:23+01:00</time>
      </trkpt>
      <trkpt lat="48.08298" lon="3.41301">
        <ele>135</ele>
        <time>2019-12-11T18:33:28+01:00</time>
      </trkpt>
      <trkpt lat="48.08286" lon="3.41331">
        <ele>136</ele>
        <time>2019-12-11T18:33:33+01:00</time>
      </trkpt>
      <trkpt lat="48.08277" lon="3.41349">
        <ele>136</ele>
        <time>2019-12-11T18:33:38+01:00</time>
      </trkpt>
      <trkpt lat="48.08267" lon="3.4137">
        <ele>136</ele>
        <time>2019-12-11T18:33:43+01:00</time>
      </trkpt>
      <trkpt lat="48.08249" lon="3.41351">
        <ele>135</ele>
        <time>2019-12-11T18:33:48+01:00</time>
      </trkpt>
      <trkpt lat="48.08233" lon="3.41338">
        <ele>135</ele>
        <time>2019-12-11T18:33:53+01:00</time>
      </trkpt>
      <trkpt lat="48.08225" lon="3.41341">
        <ele>135</ele>
        <time>2019-12-11T18:33:58+01:00</time>
      </trkpt>
      <trkpt lat="48.08213" lon="3.41357">
        <ele>135</ele>
        <time>2019-12-11T18:34:03+01:00</time>
      </trkpt>
      <trkpt lat="48.08205" lon="3.41372">
        <ele>135</ele>
        <time>2019-12-11T18:34:08+01:00</time>
      </trkpt>
      <trkpt lat="48.08175" lon="3.41344">
        <ele>133</ele>
        <time>2019-12-11T18:34:13+01:00</time>
      </trkpt>
      <trkpt lat="48.08176" lon="3.41346">
        <ele>134</ele>
        <time>2019-12-11T18:34:18+01:00</time>
      </trkpt>
    </trkseg>
  </trk>
</gpx>